Time,TemperatureF,DewpointF,PressureIn,WindDirection,WindDirectionDegrees,WindSpeedMPH,WindSpeedGustMPH,Humidity,HourlyPrecipIn,Conditions,Clouds,dailyrainin,SolarRadiationWatts/m^2,SoftwareType,DateUTC
2013-01-23 00:02:00,57.0,22.0,-100.00,NNW,330,8.0,17.0,25,0.00,,,0.00,0.000000,,2013-01-23 10:02:00,
2013-01-23 00:12:00,57.0,22.0,-100.00,NNW,330,8.0,17.0,25,0.00,,,0.00,0.000000,,2013-01-23 10:12:00,
2013-01-23 00:22:00,57.0,22.0,-100.00,NNW,330,8.0,17.0,25,0.00,,,0.00,0.000000,,2013-01-23 10:22:00,
2013-01-23 00:32:00,57.0,22.0,-100.00,NNW,330,8.0,17.0,25,0.00,,,0.00,0.000000,,2013-01-23 10:32:00,
2013-01-23 00:53:00,56.0,25.0,-100.00,NE,48,9.0,15.0,30,0.00,,,0.00,0.000000,,2013-01-23 10:53:00,
2013-01-23 01:02:00,56.0,25.0,-100.00,NE,48,9.0,15.0,30,0.00,,,0.00,0.000000,,2013-01-23 11:02:00,
2013-01-23 01:12:00,56.0,25.0,-100.00,NE,48,9.0,15.0,30,0.00,,,0.00,0.000000,,2013-01-23 11:12:00,
2013-01-23 01:22:00,56.0,25.0,-100.00,NE,48,9.0,15.0,30,0.00,,,0.00,0.000000,,2013-01-23 11:22:00,
2013-01-23 01:32:00,56.0,25.0,-100.00,NE,48,9.0,15.0,30,0.00,,,0.00,0.000000,,2013-01-23 11:32:00,
2013-01-23 01:53:00,55.0,26.0,-100.00,NNW,328,6.0,17.0,32,0.00,,,0.00,0.000000,,2013-01-23 11:53:00,
2013-01-23 02:03:00,55.0,26.0,-100.00,NNW,328,6.0,17.0,32,0.00,,,0.00,0.000000,,2013-01-23 12:03:00,
2013-01-23 02:12:00,55.0,26.0,-100.00,NNW,328,6.0,17.0,32,0.00,,,0.00,0.000000,,2013-01-23 12:12:00,
2013-01-23 02:22:00,55.0,26.0,-100.00,NNW,328,6.0,17.0,32,0.00,,,0.00,0.000000,,2013-01-23 12:22:00,
2013-01-23 02:32:00,55.0,26.0,-100.00,NNW,328,6.0,17.0,32,0.00,,,0.00,0.000000,,2013-01-23 12:32:00,
2013-01-23 02:53:00,53.0,26.0,-100.00,NNW,328,6.0,13.0,35,0.00,,,0.00,0.000000,,2013-01-23 12:53:00,
2013-01-23 03:03:00,53.0,26.0,-100.00,NNW,328,6.0,13.0,35,0.00,,,0.00,0.000000,,2013-01-23 13:03:00,
2013-01-23 03:12:00,53.0,26.0,-100.00,NNW,328,6.0,13.0,35,0.00,,,0.00,0.000000,,2013-01-23 13:12:00,
2013-01-23 03:22:00,53.0,26.0,-100.00,NNW,328,6.0,13.0,35,0.00,,,0.00,0.000000,,2013-01-23 13:22:00,
2013-01-23 03:33:00,53.0,26.0,-100.00,NNW,328,6.0,13.0,35,0.00,,,0.00,0.000000,,2013-01-23 13:33:00,
2013-01-23 03:53:00,53.0,25.0,-100.00,NNW,337,6.0,13.0,34,0.00,,,0.00,0.000000,,2013-01-23 13:53:00,
2013-01-23 04:02:00,53.0,25.0,-100.00,NNW,337,6.0,13.0,34,0.00,,,0.00,0.000000,,2013-01-23 14:02:00,
2013-01-23 04:12:00,53.0,25.0,-100.00,NNW,337,6.0,13.0,34,0.00,,,0.00,0.000000,,2013-01-23 14:12:00,
2013-01-23 04:23:00,53.0,25.0,-100.00,NNW,337,6.0,13.0,34,0.00,,,0.00,0.000000,,2013-01-23 14:23:00,
2013-01-23 04:33:00,53.0,25.0,-100.00,NNW,337,6.0,13.0,34,0.00,,,0.00,0.000000,,2013-01-23 14:33:00,
2013-01-23 04:53:00,52.0,25.0,-100.00,ENE,78,8.0,12.0,35,0.00,,,0.00,0.000000,,2013-01-23 14:53:00,
2013-01-23 05:02:00,52.0,25.0,-100.00,ENE,78,8.0,12.0,35,0.00,,,0.00,0.000000,,2013-01-23 15:02:00,
2013-01-23 05:12:00,52.0,25.0,-100.00,ENE,78,8.0,12.0,35,0.00,,,0.00,0.000000,,2013-01-23 15:12:00,
2013-01-23 05:22:00,52.0,25.0,-100.00,ENE,78,8.0,12.0,35,0.00,,,0.00,0.000000,,2013-01-23 15:22:00,
2013-01-23 05:33:00,52.0,25.0,-100.00,ENE,78,8.0,12.0,35,0.00,,,0.00,0.000000,,2013-01-23 15:33:00,
2013-01-23 05:53:00,53.0,25.0,-100.00,West,274,8.0,13.0,34,0.00,,,0.00,0.000000,,2013-01-23 15:53:00,
2013-01-23 06:03:00,53.0,25.0,-100.00,West,274,8.0,13.0,34,0.00,,,0.00,0.000000,,2013-01-23 16:03:00,
2013-01-23 06:12:00,53.0,25.0,-100.00,West,274,8.0,13.0,34,0.00,,,0.00,0.000000,,2013-01-23 16:12:00,
2013-01-23 06:22:00,53.0,25.0,-100.00,West,274,8.0,13.0,34,0.00,,,0.00,0.000000,,2013-01-23 16:22:00,
2013-01-23 06:32:00,53.0,25.0,-100.00,West,274,8.0,13.0,34,0.00,,,0.00,0.000000,,2013-01-23 16:32:00,
2013-01-23 07:03:00,52.0,24.0,-100.00,North,355,8.0,13.0,33,0.00,,,0.00,0.000000,,2013-01-23 17:03:00,
2013-01-23 07:12:00,52.0,24.0,-100.00,North,355,8.0,13.0,33,0.00,,,0.00,0.000000,,2013-01-23 17:12:00,
2013-01-23 07:22:00,52.0,24.0,-100.00,North,355,8.0,13.0,33,0.00,,,0.00,0.000000,,2013-01-23 17:22:00,
2013-01-23 07:33:00,52.0,24.0,-100.00,North,355,8.0,13.0,33,0.00,,,0.00,0.000000,,2013-01-23 17:33:00,
2013-01-23 08:03:00,57.0,23.0,-100.00,NNW,335,6.0,14.0,27,0.00,,,0.00,30.000000,,2013-01-23 18:03:00,
2013-01-23 08:12:00,57.0,23.0,-100.00,NNW,335,6.0,14.0,27,0.00,,,0.00,30.000000,,2013-01-23 18:12:00,
2013-01-23 08:23:00,57.0,23.0,-100.00,NNW,335,6.0,14.0,27,0.00,,,0.00,30.000000,,2013-01-23 18:23:00,
2013-01-23 08:32:00,57.0,23.0,-100.00,NNW,335,6.0,14.0,27,0.00,,,0.00,30.000000,,2013-01-23 18:32:00,
2013-01-23 08:53:00,70.0,25.0,-100.00,NNW,345,6.0,12.0,18,0.00,,,0.00,256.000000,,2013-01-23 18:53:00,
2013-01-23 09:02:00,70.0,25.0,-100.00,NNW,345,6.0,12.0,18,0.00,,,0.00,256.000000,,2013-01-23 19:02:00,
2013-01-23 09:12:00,70.0,25.0,-100.00,NNW,345,6.0,12.0,18,0.00,,,0.00,256.000000,,2013-01-23 19:12:00,
2013-01-23 09:22:00,70.0,25.0,-100.00,NNW,345,6.0,12.0,18,0.00,,,0.00,256.000000,,2013-01-23 19:22:00,
2013-01-23 09:32:00,70.0,25.0,-100.00,NNW,345,6.0,12.0,18,0.00,,,0.00,256.000000,,2013-01-23 19:32:00,
2013-01-23 10:03:00,72.0,25.0,-100.00,NNE,27,7.0,14.0,17,0.00,,,0.00,508.000000,,2013-01-23 20:03:00,
2013-01-23 10:12:00,72.0,25.0,-100.00,NNE,27,7.0,14.0,17,0.00,,,0.00,508.000000,,2013-01-23 20:12:00,
2013-01-23 10:22:00,72.0,25.0,-100.00,NNE,27,7.0,14.0,17,0.00,,,0.00,508.000000,,2013-01-23 20:22:00,
2013-01-23 10:32:00,72.0,25.0,-100.00,NNE,27,7.0,14.0,17,0.00,,,0.00,508.000000,,2013-01-23 20:32:00,
2013-01-23 10:53:00,69.0,46.0,-100.00,NE,34,10.0,15.0,44,0.00,,,0.00,715.000000,,2013-01-23 20:53:00,
2013-01-23 11:02:00,69.0,46.0,-100.00,NE,34,10.0,15.0,44,0.00,,,0.00,715.000000,,2013-01-23 21:02:00,
2013-01-23 11:12:00,69.0,46.0,-100.00,NE,34,10.0,15.0,44,0.00,,,0.00,715.000000,,2013-01-23 21:12:00,
2013-01-23 11:22:00,69.0,46.0,-100.00,NE,34,10.0,15.0,44,0.00,,,0.00,715.000000,,2013-01-23 21:22:00,
2013-01-23 11:33:00,69.0,46.0,-100.00,NE,34,10.0,15.0,44,0.00,,,0.00,715.000000,,2013-01-23 21:33:00,
2013-01-23 11:53:00,69.0,45.0,-100.00,ENE,59,8.0,17.0,42,0.00,,,0.00,856.000000,,2013-01-23 21:53:00,
2013-01-23 12:02:00,69.0,45.0,-100.00,ENE,59,8.0,17.0,42,0.00,,,0.00,856.000000,,2013-01-23 22:02:00,
2013-01-23 12:12:00,69.0,45.0,-100.00,ENE,59,8.0,17.0,42,0.00,,,0.00,856.000000,,2013-01-23 22:12:00,
2013-01-23 12:22:00,69.0,45.0,-100.00,ENE,59,8.0,17.0,42,0.00,,,0.00,856.000000,,2013-01-23 22:22:00,
2013-01-23 12:33:00,69.0,45.0,-100.00,ENE,59,8.0,17.0,42,0.00,,,0.00,856.000000,,2013-01-23 22:33:00,
2013-01-23 13:03:00,72.0,44.0,-100.00,ENE,75,6.0,14.0,37,0.00,,,0.00,929.000000,,2013-01-23 23:03:00,
2013-01-23 13:12:00,72.0,44.0,-100.00,ENE,75,6.0,14.0,37,0.00,,,0.00,929.000000,,2013-01-23 23:12:00,
2013-01-23 13:22:00,72.0,44.0,-100.00,ENE,75,6.0,14.0,37,0.00,,,0.00,929.000000,,2013-01-23 23:22:00,
2013-01-23 13:33:00,72.0,44.0,-100.00,ENE,75,6.0,14.0,37,0.00,,,0.00,929.000000,,2013-01-23 23:33:00,
2013-01-23 14:03:00,70.0,45.0,-100.00,East,80,5.0,13.0,41,0.00,,,0.00,926.000000,,2013-01-24 00:03:00,
2013-01-23 14:12:00,70.0,45.0,-100.00,East,80,5.0,13.0,41,0.00,,,0.00,926.000000,,2013-01-24 00:12:00,
2013-01-23 14:22:00,70.0,45.0,-100.00,East,80,5.0,13.0,41,0.00,,,0.00,926.000000,,2013-01-24 00:22:00,
2013-01-23 14:32:00,70.0,45.0,-100.00,East,80,5.0,13.0,41,0.00,,,0.00,926.000000,,2013-01-24 00:32:00,
2013-01-23 14:53:00,72.0,53.0,-100.00,SE,136,5.0,13.0,51,0.00,,,0.00,863.000000,,2013-01-24 00:53:00,
2013-01-23 15:02:00,72.0,53.0,-100.00,SE,136,5.0,13.0,51,0.00,,,0.00,863.000000,,2013-01-24 01:02:00,
2013-01-23 15:12:00,72.0,53.0,-100.00,SE,136,5.0,13.0,51,0.00,,,0.00,863.000000,,2013-01-24 01:12:00,
2013-01-23 15:22:00,72.0,53.0,-100.00,SE,136,5.0,13.0,51,0.00,,,0.00,863.000000,,2013-01-24 01:22:00,
2013-01-23 15:32:00,72.0,53.0,-100.00,SE,136,5.0,13.0,51,0.00,,,0.00,863.000000,,2013-01-24 01:32:00,
2013-01-23 16:02:00,68.0,52.0,-100.00,ESE,120,5.0,12.0,57,0.00,,,0.00,703.000000,,2013-01-24 02:02:00,
2013-01-23 16:12:00,68.0,52.0,-100.00,ESE,120,5.0,12.0,57,0.00,,,0.00,703.000000,,2013-01-24 02:12:00,
2013-01-23 16:22:00,68.0,52.0,-100.00,ESE,120,5.0,12.0,57,0.00,,,0.00,703.000000,,2013-01-24 02:22:00,
2013-01-23 16:32:00,68.0,52.0,-100.00,ESE,120,5.0,12.0,57,0.00,,,0.00,703.000000,,2013-01-24 02:32:00,
2013-01-23 17:02:00,66.0,55.0,-100.00,SE,126,4.0,10.0,67,0.00,,,0.00,450.000000,,2013-01-24 03:02:00,
2013-01-23 17:12:00,66.0,55.0,-100.00,SE,126,4.0,10.0,67,0.00,,,0.00,450.000000,,2013-01-24 03:12:00,
2013-01-23 17:22:00,66.0,55.0,-100.00,SE,126,4.0,10.0,67,0.00,,,0.00,450.000000,,2013-01-24 03:22:00,
2013-01-23 17:32:00,66.0,55.0,-100.00,SE,126,4.0,10.0,67,0.00,,,0.00,450.000000,,2013-01-24 03:32:00,
2013-01-23 17:53:00,57.0,51.0,-100.00,SE,128,1.0,7.0,81,0.00,,,0.00,215.000000,,2013-01-24 03:53:00,
2013-01-23 18:02:00,57.0,51.0,-100.00,SE,128,1.0,7.0,81,0.00,,,0.00,215.000000,,2013-01-24 04:02:00,
2013-01-23 18:12:00,57.0,51.0,-100.00,SE,128,1.0,7.0,81,0.00,,,0.00,215.000000,,2013-01-24 04:12:00,
2013-01-23 18:22:00,57.0,51.0,-100.00,SE,128,1.0,7.0,81,0.00,,,0.00,215.000000,,2013-01-24 04:22:00,
2013-01-23 18:32:00,57.0,51.0,-100.00,SE,128,1.0,7.0,81,0.00,,,0.00,215.000000,,2013-01-24 04:32:00,
2013-01-23 19:03:00,50.0,47.0,-100.00,NE,44,0.0,5.0,90,0.00,,,0.00,13.000000,,2013-01-24 05:03:00,
2013-01-23 19:12:00,50.0,47.0,-100.00,NE,44,0.0,5.0,90,0.00,,,0.00,13.000000,,2013-01-24 05:12:00,
2013-01-23 19:22:00,50.0,47.0,-100.00,NE,44,0.0,5.0,90,0.00,,,0.00,13.000000,,2013-01-24 05:22:00,
2013-01-23 19:32:00,50.0,47.0,-100.00,NE,44,0.0,5.0,90,0.00,,,0.00,13.000000,,2013-01-24 05:32:00,
2013-01-23 20:02:00,47.0,45.0,-100.00,NW,317,0.0,4.0,93,0.00,,,0.00,0.000000,,2013-01-24 06:02:00,
2013-01-23 20:12:00,47.0,45.0,-100.00,NW,317,0.0,4.0,93,0.00,,,0.00,0.000000,,2013-01-24 06:12:00,
2013-01-23 20:22:00,47.0,45.0,-100.00,NW,317,0.0,4.0,93,0.00,,,0.00,0.000000,,2013-01-24 06:22:00,
2013-01-23 20:32:00,47.0,45.0,-100.00,NW,317,0.0,4.0,93,0.00,,,0.00,0.000000,,2013-01-24 06:32:00,
2013-01-23 20:52:00,47.0,33.0,-100.00,NNW,344,2.0,4.0,59,0.00,,,0.00,0.000000,,2013-01-24 06:52:00,
2013-01-23 21:02:00,47.0,33.0,-100.00,NNW,344,2.0,4.0,59,0.00,,,0.00,0.000000,,2013-01-24 07:02:00,
2013-01-23 21:12:00,47.0,33.0,-100.00,NNW,344,2.0,4.0,59,0.00,,,0.00,0.000000,,2013-01-24 07:12:00,
2013-01-23 21:22:00,47.0,33.0,-100.00,NNW,344,2.0,4.0,59,0.00,,,0.00,0.000000,,2013-01-24 07:22:00,
2013-01-23 21:32:00,47.0,33.0,-100.00,NNW,344,2.0,4.0,59,0.00,,,0.00,0.000000,,2013-01-24 07:32:00,
2013-01-23 22:02:00,43.0,34.0,-100.00,NNE,32,1.0,4.0,71,0.00,,,0.00,0.000000,,2013-01-24 08:02:00,
2013-01-23 22:12:00,43.0,34.0,-100.00,NNE,32,1.0,4.0,71,0.00,,,0.00,0.000000,,2013-01-24 08:12:00,
2013-01-23 22:22:00,43.0,34.0,-100.00,NNE,32,1.0,4.0,71,0.00,,,0.00,0.000000,,2013-01-24 08:22:00,
2013-01-23 22:32:00,43.0,34.0,-100.00,NNE,32,1.0,4.0,71,0.00,,,0.00,0.000000,,2013-01-24 08:32:00,
2013-01-23 22:53:00,42.0,35.0,-100.00,West,280,0.0,5.0,75,0.00,,,0.00,0.000000,,2013-01-24 08:53:00,
2013-01-23 23:02:00,42.0,35.0,-100.00,West,280,0.0,5.0,75,0.00,,,0.00,0.000000,,2013-01-24 09:02:00,
2013-01-23 23:12:00,42.0,35.0,-100.00,West,280,0.0,5.0,75,0.00,,,0.00,0.000000,,2013-01-24 09:12:00,
2013-01-23 23:22:00,42.0,35.0,-100.00,West,280,0.0,5.0,75,0.00,,,0.00,0.000000,,2013-01-24 09:22:00,
2013-01-23 23:32:00,42.0,35.0,-100.00,West,280,0.0,5.0,75,0.00,,,0.00,0.000000,,2013-01-24 09:32:00,
2013-01-23 23:53:00,42.0,38.0,-100.00,NNW,339,3.0,5.0,87,0.00,,,0.00,0.000000,,2013-01-24 09:53:00,